createdAt,value
2022-12-31T06:04:01.979Z,17.60
2022-12-31T06:09:05.963Z,17.60
2022-12-31T06:14:10.011Z,17.70
2022-12-31T06:19:15.017Z,17.80
2022-12-31T06:24:18.884Z,17.90
2022-12-31T06:29:22.895Z,18.00
2022-12-31T06:34:28.095Z,18.00
2022-12-31T06:39:31.750Z,17.80
2022-12-31T06:44:35.988Z,17.70
2022-12-31T06:49:41.172Z,17.50
2022-12-31T06:54:45.393Z,17.50
2022-12-31T06:59:49.587Z,17.40
2022-12-31T07:05:31.344Z,17.40
2022-12-31T07:10:45.518Z,17.40
2022-12-31T07:16:02.348Z,17.50
2022-12-31T07:21:13.519Z,17.40
2022-12-31T07:26:22.731Z,17.40
2022-12-31T07:31:37.074Z,17.40
2022-12-31T07:36:50.550Z,17.40
2022-12-31T07:42:02.412Z,17.50
2022-12-31T07:47:21.862Z,17.50
2022-12-31T07:52:28.003Z,17.60
2022-12-31T07:57:39.783Z,17.60
2022-12-31T08:03:15.932Z,17.60
2022-12-31T08:08:30.146Z,17.60
2022-12-31T08:13:34.041Z,17.70
2022-12-31T08:18:38.010Z,17.70
2022-12-31T08:23:53.334Z,17.70
2022-12-31T08:29:05.805Z,17.70
2022-12-31T08:34:18.684Z,17.70
2022-12-31T08:39:37.916Z,17.80
2022-12-31T08:44:48.828Z,17.80
2022-12-31T08:49:52.910Z,17.70
2022-12-31T08:54:59.135Z,17.80
2022-12-31T09:00:08.477Z,17.70
2022-12-31T09:05:20.727Z,17.70
2022-12-31T09:10:31.335Z,17.70
2022-12-31T09:15:41.206Z,17.70
2022-12-31T09:20:45.238Z,17.70
2022-12-31T09:25:58.601Z,17.70
2022-12-31T09:31:09.940Z,17.70
2022-12-31T09:36:20.432Z,17.70
2022-12-31T09:41:57.978Z,17.70
2022-12-31T09:47:50.448Z,17.60
2022-12-31T09:53:10.430Z,17.60
2022-12-31T09:58:28.188Z,17.60
2022-12-31T10:03:43.920Z,17.60
2022-12-31T10:09:11.278Z,17.60
2022-12-31T10:14:36.101Z,17.70
2022-12-31T10:19:46.866Z,17.70
2022-12-31T10:25:04.912Z,17.70
2022-12-31T10:30:16.416Z,17.60
2022-12-31T10:35:31.126Z,17.60
2022-12-31T10:40:46.195Z,17.60
2022-12-31T10:46:23.444Z,17.50
2022-12-31T10:52:04.720Z,17.40
2022-12-31T10:57:37.006Z,17.40
2022-12-31T11:03:13.290Z,17.50
2022-12-31T11:08:39.988Z,17.50
2022-12-31T11:14:23.806Z,17.60
2022-12-31T11:19:37.621Z,17.70
2022-12-31T11:25:07.408Z,17.90
2022-12-31T11:30:22.874Z,18.00
2022-12-31T11:35:38.577Z,18.10
2022-12-31T11:40:54.186Z,18.30
2022-12-31T11:46:24.877Z,18.40
2022-12-31T11:51:54.960Z,18.40
2022-12-31T11:57:06.807Z,18.50
2022-12-31T12:02:26.494Z,18.50
2022-12-31T12:07:32.866Z,18.60
2022-12-31T12:12:41.003Z,18.60
2022-12-31T12:17:54.709Z,18.60
2022-12-31T12:23:00.148Z,18.60
2022-12-31T12:28:19.828Z,18.70
2022-12-31T12:33:25.398Z,18.70
2022-12-31T12:38:29.429Z,18.80
2022-12-31T12:43:35.567Z,18.80
2022-12-31T12:48:43.582Z,18.80
2022-12-31T12:53:59.186Z,18.90
2022-12-31T12:59:33.400Z,18.90
2022-12-31T13:05:04.454Z,19.00
2022-12-31T13:10:28.150Z,19.00
2022-12-31T13:15:40.602Z,19.00
2022-12-31T13:20:51.913Z,19.10
2022-12-31T13:26:09.768Z,19.10
2022-12-31T13:31:16.639Z,19.20
2022-12-31T13:36:24.906Z,19.20
2022-12-31T13:41:33.861Z,19.20
2022-12-31T13:46:42.660Z,19.20
2022-12-31T13:51:50.272Z,19.30
2022-12-31T13:56:55.074Z,19.30
2022-12-31T14:02:05.654Z,19.30
2022-12-31T14:07:14.767Z,19.30
2022-12-31T14:12:28.817Z,19.30
2022-12-31T14:17:42.003Z,19.30
2022-12-31T14:22:52.717Z,19.20
2022-12-31T14:27:59.259Z,19.10
2022-12-31T14:33:42.681Z,19.10
2022-12-31T14:39:10.011Z,19.00
2022-12-31T14:44:36.858Z,18.40
2022-12-31T14:49:51.178Z,18.90
2022-12-31T14:55:20.316Z,18.90
2022-12-31T15:00:33.060Z,18.80
2022-12-31T15:05:39.424Z,19.10
2022-12-31T15:10:57.144Z,18.90
2022-12-31T15:16:35.754Z,18.90
2022-12-31T15:22:00.691Z,18.90
2022-12-31T15:27:07.856Z,19.00
2022-12-31T15:32:20.235Z,18.90
2022-12-31T15:37:33.474Z,18.90
2022-12-31T15:42:49.846Z,18.80
2022-12-31T15:47:57.919Z,18.90
2022-12-31T15:53:03.743Z,18.90
2022-12-31T15:58:14.267Z,18.90
2022-12-31T16:03:24.522Z,18.90
2022-12-31T16:08:32.518Z,18.90
2022-12-31T16:13:42.032Z,18.90
2022-12-31T16:18:45.848Z,18.90
2022-12-31T16:23:52.939Z,18.90
2022-12-31T16:29:01.266Z,19.00
2022-12-31T16:34:07.256Z,19.00
2022-12-31T16:39:25.327Z,19.00
2022-12-31T16:44:31.856Z,18.90
2022-12-31T16:49:39.008Z,19.00
2022-12-31T16:54:47.624Z,18.90
2022-12-31T16:59:55.818Z,18.90
2022-12-31T17:04:59.764Z,18.90
2022-12-31T17:10:04.900Z,18.90
2022-12-31T17:15:19.403Z,19.10
2022-12-31T17:20:26.354Z,18.80
2022-12-31T17:25:32.397Z,18.80
2022-12-31T17:30:41.874Z,18.70
2022-12-31T17:35:46.638Z,18.70
2022-12-31T17:40:52.807Z,18.70
2022-12-31T17:45:58.459Z,18.60
2022-12-31T17:51:02.832Z,18.60
2022-12-31T17:56:14.430Z,18.60
2022-12-31T18:01:21.136Z,18.50
2022-12-31T18:06:26.701Z,18.50
2022-12-31T18:11:30.604Z,18.50
2022-12-31T18:16:35.872Z,18.50
2022-12-31T18:21:39.660Z,18.20
2022-12-31T18:26:43.933Z,18.40
2022-12-31T18:31:50.786Z,18.40
2022-12-31T18:36:54.618Z,18.30
2022-12-31T18:41:58.409Z,18.30
2022-12-31T18:47:03.570Z,18.30
2022-12-31T18:52:07.758Z,18.20
2022-12-31T18:57:12.916Z,18.20
2022-12-31T19:02:20.974Z,18.00
2022-12-31T19:07:24.840Z,18.00
2022-12-31T19:12:28.506Z,18.00
2022-12-31T19:17:33.676Z,17.90
2022-12-31T19:27:41.348Z,17.80
2022-12-31T19:32:46.630Z,17.80
2022-12-31T19:37:52.771Z,17.70
2022-12-31T19:42:59.412Z,17.30
2022-12-31T19:48:04.668Z,17.50
2022-12-31T19:53:11.518Z,17.50
2022-12-31T19:58:19.078Z,17.30
2022-12-31T20:03:24.800Z,16.90
2022-12-31T20:08:28.549Z,16.90
2022-12-31T20:18:38.971Z,16.60
2022-12-31T20:23:42.928Z,16.50
2022-12-31T20:33:54.100Z,16.50
2022-12-31T20:38:59.474Z,16.40
2022-12-31T20:49:08.821Z,16.30
2022-12-31T20:59:17.848Z,16.30
2022-12-31T21:04:23.216Z,16.30
2022-12-31T21:09:27.198Z,16.20
2022-12-31T21:19:36.260Z,16.40
2022-12-31T21:24:40.187Z,16.40
2022-12-31T21:40:34.056Z,16.50
2022-12-31T21:45:37.857Z,16.60
2022-12-31T21:50:42.831Z,16.60
2022-12-31T21:56:03.818Z,16.80
2022-12-31T22:01:26.261Z,16.60
2022-12-31T22:06:31.779Z,16.60
2022-12-31T22:11:35.430Z,16.50
2022-12-31T22:21:44.852Z,16.50
2022-12-31T22:26:48.518Z,16.50
2022-12-31T22:31:55.524Z,16.40
2022-12-31T22:37:27.207Z,16.40
2022-12-31T22:42:27.497Z,16.30
2022-12-31T22:47:31.211Z,16.30
2022-12-31T22:52:36.620Z,16.20
2022-12-31T22:57:40.329Z,16.20
2022-12-31T23:02:44.536Z,16.10
2022-12-31T23:07:49.569Z,16.10
2022-12-31T23:12:54.364Z,16.10
2022-12-31T23:18:15.539Z,16.00
2022-12-31T23:23:20.562Z,16.00
2022-12-31T23:28:26.593Z,15.90
